Time;durP1;ratioP1;P1;durP2;ratioP2;P2;SDS_P1;SDS_P2;PMS_P1;PMS_P2;Temp;Humidity;BMP_temperature;BMP_pressure;BME280_temperature;BME280_humidity;BME280_pressure;Samples;Min_cycle;Max_cycle;Signal;HPM_P1;HPM_P2
2022/08/16 00:02:58;;;;;;;10.20;3.83;;;;;;;22.55;61.87;99431.66;5550430;32;34689;-70
2022/08/16 00:06:01;;;;;;;8.88;4.25;;;;;;;22.50;62.01;99432.47;5550475;32;34111;-70
2022/08/16 00:09:07;;;;;;;6.95;4.12;;;;;;;22.45;63.23;99431.63;5550939;32;34415;-70
2022/08/16 00:12:12;;;;;;;10.07;4.10;;;;;;;22.39;63.27;99444.31;5548501;32;35182;-70
2022/08/16 00:15:24;;;;;;;6.72;4.05;;;;;;;22.32;63.28;99446.47;5550420;32;34141;-70
2022/08/16 00:18:47;;;;;;;6.07;4.10;;;;;;;22.27;63.11;99446.44;5550512;32;34022;-70
2022/08/16 00:21:52;;;;;;;6.87;4.28;;;;;;;22.19;63.43;99443.47;5550252;32;34003;-70
2022/08/16 00:25:00;;;;;;;11.45;4.12;;;;;;;22.14;63.89;99449.66;5550298;32;33922;-70
2022/08/16 00:28:04;;;;;;;10.43;4.50;;;;;;;22.12;64.39;99442.91;5550242;32;33996;-71
2022/08/16 00:31:08;;;;;;;8.73;4.43;;;;;;;22.09;64.94;99447.75;5550131;32;34647;-70
2022/08/16 00:34:11;;;;;;;13.90;4.50;;;;;;;22.07;65.68;99446.41;5549740;32;34015;-70
2022/08/16 00:37:24;;;;;;;20.83;5.70;;;;;;;22.07;66.05;99447.19;5550032;32;34208;-70
2022/08/16 00:40:54;;;;;;;12.88;5.12;;;;;;;22.09;65.86;99446.94;5550127;32;34048;-70
2022/08/16 00:44:02;;;;;;;15.10;5.18;;;;;;;22.07;66.07;99449.12;5550077;32;34695;-70
2022/08/16 00:47:15;;;;;;;22.98;5.10;;;;;;;22.06;66.38;99455.59;5549967;32;33956;-70
2022/08/16 00:50:22;;;;;;;26.45;5.82;;;;;;;22.14;65.96;99446.16;5550273;32;34022;-70
2022/08/16 00:53:38;;;;;;;24.08;5.62;;;;;;;22.19;65.69;99449.69;5549925;32;33943;-70
2022/08/16 00:56:45;;;;;;;18.08;5.18;;;;;;;22.15;65.95;99445.06;5549819;32;34593;-70
2022/08/16 01:00:03;;;;;;;32.00;5.30;;;;;;;22.06;66.65;99452.87;5549805;32;34549;-70
2022/08/16 01:03:10;;;;;;;15.70;5.10;;;;;;;21.96;66.28;99456.38;5550089;32;33884;-70
2022/08/16 01:06:16;;;;;;;12.18;4.87;;;;;;;21.89;66.23;99457.63;5549002;32;35091;-70
2022/08/16 01:09:39;;;;;;;20.48;4.78;;;;;;;21.87;66.11;99460.63;5549829;32;34308;-70
2022/08/16 01:12:44;;;;;;;32.28;6.10;;;;;;;21.82;66.44;99466.00;5549639;32;34081;-70
2022/08/16 01:15:54;;;;;;;20.50;6.15;;;;;;;21.80;67.37;99467.31;5549511;32;34587;-70
2022/08/16 01:19:08;;;;;;;21.77;5.00;;;;;;;21.76;67.76;99468.94;5549767;32;33985;-70
2022/08/16 01:22:32;;;;;;;27.27;5.95;;;;;;;21.74;68.20;99469.19;5550210;32;34004;-70
2022/08/16 01:25:52;;;;;;;25.33;5.37;;;;;;;21.73;68.79;99475.69;5551892;32;34573;-70
2022/08/16 01:29:28;;;;;;;19.02;5.15;;;;;;;21.76;69.24;99471.62;5552172;32;34639;-70
2022/08/16 01:32:53;;;;;;;21.60;5.93;;;;;;;21.83;69.47;99464.12;5551745;32;35175;-70
2022/08/16 01:36:16;;;;;;;22.40;5.37;;;;;;;21.76;69.74;99469.75;5551824;32;34547;-70
2022/08/16 01:39:19;;;;;;;21.05;5.87;;;;;;;21.74;69.55;99481.84;5551858;32;34025;-70
2022/08/16 01:42:25;;;;;;;22.30;5.32;;;;;;;21.65;69.75;99468.88;5551752;32;34153;-70
2022/08/16 01:45:27;;;;;;;30.50;5.28;;;;;;;21.88;67.22;99475.72;5551761;32;33959;-70
2022/08/16 01:48:43;;;;;;;21.15;5.47;;;;;;;21.67;66.79;99471.31;5551049;32;33969;-70
2022/08/16 01:51:57;;;;;;;16.52;5.78;;;;;;;21.57;67.13;99466.69;5552016;32;34417;-70
2022/08/16 01:55:03;;;;;;;25.05;5.47;;;;;;;21.49;67.05;99466.38;5551683;32;34570;-70
2022/08/16 01:58:09;;;;;;;32.55;6.35;;;;;;;21.39;67.34;99474.41;5551970;32;34371;-70
2022/08/16 02:01:14;;;;;;;25.75;5.37;;;;;;;21.33;67.73;99478.13;5551872;32;34731;-70
2022/08/16 02:04:21;;;;;;;16.35;5.47;;;;;;;21.22;68.82;99471.84;5551953;32;33848;-70
2022/08/16 02:07:44;;;;;;;25.85;5.68;;;;;;;21.12;68.69;99475.25;5551521;32;34736;-70
2022/08/16 02:10:51;;;;;;;29.95;5.70;;;;;;;21.06;68.89;99468.19;5551584;32;33898;-70
2022/08/16 02:13:54;;;;;;;24.87;6.45;;;;;;;21.05;69.20;99471.16;5551345;32;34609;-70
2022/08/16 02:17:00;;;;;;;23.67;5.53;;;;;;;21.02;69.18;99464.38;5551482;32;33948;-69
2022/08/16 02:20:07;;;;;;;27.67;5.77;;;;;;;21.04;69.48;99470.34;5550381;32;33198;-69
2022/08/16 02:23:14;;;;;;;32.65;6.65;;;;;;;21.03;70.39;99467.87;5551386;32;34598;-70
2022/08/16 02:26:18;;;;;;;23.58;6.05;;;;;;;21.00;71.91;99463.03;5550721;32;34071;-69
2022/08/16 02:29:23;;;;;;;20.70;5.40;;;;;;;21.01;70.55;99461.97;5546250;32;162268;-70
2022/08/16 02:32:33;;;;;;;19.17;5.30;;;;;;;20.95;70.86;99450.31;5551099;32;34071;-70
2022/08/16 02:35:53;;;;;;;25.65;5.97;;;;;;;21.14;69.20;99456.16;5551379;32;33967;-70
2022/08/16 02:39:03;;;;;;;18.25;5.00;;;;;;;21.13;69.01;99449.09;5550725;32;33975;-70
2022/08/16 02:42:06;;;;;;;14.10;5.18;;;;;;;20.97;69.92;99452.72;5551317;32;34381;-70
2022/08/16 02:45:09;;;;;;;24.42;5.35;;;;;;;20.89;70.24;99454.03;5551150;32;34256;-69
2022/08/16 02:48:15;;;;;;;15.52;4.95;;;;;;;21.00;68.45;99455.75;5551334;32;34309;-69
2022/08/16 02:51:35;;;;;;;18.90;4.82;;;;;;;21.08;68.48;99457.12;5551051;32;33922;-70
2022/08/16 02:54:38;;;;;;;18.15;5.18;;;;;;;20.95;69.73;99460.28;5551477;32;34588;-70
2022/08/16 02:57:41;;;;;;;17.02;4.60;;;;;;;20.86;70.04;99459.94;5551082;32;33953;-70
2022/08/16 03:00:58;;;;;;;16.15;5.28;;;;;;;20.81;69.01;99451.81;5551043;32;34030;-71
2022/08/16 03:04:03;;;;;;;11.38;4.80;;;;;;;20.68;69.55;99453.03;5550451;32;33526;-70
2022/08/16 03:07:26;;;;;;;13.13;5.03;;;;;;;20.55;70.01;99455.34;5551066;32;33877;-70
2022/08/16 03:10:30;;;;;;;23.00;5.15;;;;;;;20.46;70.29;99470.34;5551113;32;33900;-70
2022/08/16 03:13:35;;;;;;;16.98;5.10;;;;;;;20.41;70.49;99462.22;5550193;32;33217;-70
2022/08/16 03:16:42;;;;;;;10.00;4.75;;;;;;;20.46;71.01;99467.66;5550833;32;34241;-69
2022/08/16 03:20:08;;;;;;;13.60;5.00;;;;;;;20.45;70.79;99479.50;5550813;32;33794;-70
2022/08/16 03:23:17;;;;;;;12.02;4.95;;;;;;;20.37;71.59;99475.37;5551210;32;34564;-70
2022/08/16 03:26:20;;;;;;;12.35;4.95;;;;;;;20.30;71.39;99480.09;5550407;32;32371;-70
2022/08/16 03:29:30;;;;;;;18.45;5.07;;;;;;;20.19;71.95;99478.34;5550834;32;34048;-70
2022/08/16 03:32:34;;;;;;;19.27;5.15;;;;;;;20.16;71.91;99487.75;5550952;32;34632;-70
2022/08/16 03:35:39;;;;;;;14.77;4.95;;;;;;;20.16;71.96;99486.94;5551184;32;34584;-70
2022/08/16 03:38:42;;;;;;;15.05;4.95;;;;;;;20.15;72.23;99499.59;5550792;32;35233;-70
2022/08/16 03:41:46;;;;;;;12.57;4.93;;;;;;;20.26;71.48;99501.34;5550757;32;33916;-70
2022/08/16 03:44:53;;;;;;;9.18;4.93;;;;;;;20.26;71.20;99501.34;5550451;32;33944;-70
2022/08/16 03:48:09;;;;;;;11.68;4.65;;;;;;;20.26;71.48;99504.03;5550921;32;35287;-70
2022/08/16 03:51:18;;;;;;;11.12;4.90;;;;;;;20.33;71.12;99514.66;5550876;32;34502;-70
2022/08/16 03:54:27;;;;;;;16.48;4.95;;;;;;;20.30;71.56;99512.44;5549735;32;32573;-70
2022/08/16 03:57:31;;;;;;;6.78;4.28;;;;;;;20.35;71.44;99524.12;5550519;32;34020;-71
2022/08/16 04:00:38;;;;;;;10.88;4.68;;;;;;;20.50;71.02;99514.56;5549521;32;34162;-70
2022/08/16 04:03:44;;;;;;;8.63;4.20;;;;;;;20.70;69.92;99517.47;5550594;32;34590;-71
2022/08/16 04:06:48;;;;;;;5.60;4.07;;;;;;;20.84;69.61;99507.91;5550840;32;34563;-71
2022/08/16 04:09:54;;;;;;;5.85;4.55;;;;;;;20.86;69.73;99523.84;5550865;32;34601;-71
2022/08/16 04:12:58;;;;;;;8.88;4.45;;;;;;;20.87;69.35;99523.56;5550399;32;34065;-71
2022/08/16 04:16:08;;;;;;;6.15;4.50;;;;;;;20.99;69.23;99521.53;5550470;32;33933;-71
2022/08/16 04:19:29;;;;;;;6.82;4.47;;;;;;;21.12;69.17;99517.59;5550247;32;34289;-71
2022/08/16 04:22:35;;;;;;;15.82;5.60;;;;;;;21.19;69.16;99521.75;5550324;32;33931;-71
2022/08/16 04:25:41;;;;;;;18.10;4.93;;;;;;;21.28;69.96;99530.16;5550622;32;34592;-71
2022/08/16 04:28:49;;;;;;;14.10;4.82;;;;;;;21.30;70.07;99529.91;5550228;32;34595;-71
2022/08/16 04:32:12;;;;;;;11.50;4.72;;;;;;;21.42;69.86;99528.66;5550263;32;33991;-71
2022/08/16 04:35:19;;;;;;;14.43;4.70;;;;;;;21.59;70.23;99540.09;5550383;32;33926;-71
2022/08/16 04:38:25;;;;;;;13.75;5.10;;;;;;;21.48;70.84;99540.28;5548986;32;32730;-71
2022/08/16 04:41:30;;;;;;;9.68;4.87;;;;;;;21.47;70.90;99535.97;5549298;32;33916;-71
2022/08/16 04:44:34;;;;;;;10.98;4.78;;;;;;;21.47;70.38;99534.09;5549226;32;33995;-71
2022/08/16 04:47:58;;;;;;;8.48;4.65;;;;;;;21.55;70.15;99528.19;5549645;32;35244;-71
2022/08/16 04:51:04;;;;;;;12.52;5.00;;;;;;;21.76;71.01;99525.62;5549846;32;34118;-71
2022/08/16 04:54:14;;;;;;;9.25;4.80;;;;;;;21.82;69.76;99533.50;5549759;32;34122;-71
2022/08/16 04:57:21;;;;;;;9.50;4.68;;;;;;;22.05;67.88;99529.59;5549125;32;33928;-71
2022/08/16 05:00:32;;;;;;;18.30;5.50;;;;;;;22.08;67.47;99529.88;5548437;32;34607;-71
2022/08/16 05:03:37;;;;;;;9.93;5.70;;;;;;;22.19;66.70;99530.72;5550027;32;34740;-71
2022/08/16 05:07:02;;;;;;;10.23;4.75;;;;;;;22.22;66.72;99527.50;5549131;32;34025;-70
2022/08/16 05:10:09;;;;;;;12.00;4.60;;;;;;;22.16;66.95;99527.75;5549668;32;33986;-72
2022/08/16 05:13:24;;;;;;;11.88;4.60;;;;;;;22.21;67.58;99533.19;5549255;32;34203;-71
2022/08/16 05:16:45;;;;;;;6.90;4.18;;;;;;;22.31;66.70;99542.13;5549279;32;35139;-71
2022/08/16 05:19:48;;;;;;;7.62;4.85;;;;;;;22.31;66.73;99546.72;5549875;32;34589;-71
2022/08/16 05:23:00;;;;;;;13.95;4.85;;;;;;;22.22;66.40;99549.09;5548723;32;34395;-71
2022/08/16 05:26:03;;;;;;;11.18;4.90;;;;;;;22.37;66.10;99546.47;5547949;32;32567;-71
2022/08/16 05:29:08;;;;;;;13.13;4.90;;;;;;;22.55;65.71;99553.28;5548745;32;33945;-70
2022/08/16 05:32:17;;;;;;;12.45;5.07;;;;;;;22.64;64.76;99551.69;5548642;32;34606;-70
2022/08/16 05:35:40;;;;;;;6.15;4.12;;;;;;;22.48;65.12;99548.12;5548648;32;34040;-70
2022/08/16 05:38:45;;;;;;;9.02;4.72;;;;;;;22.48;65.21;99553.53;5548742;32;34514;-71
2022/08/16 05:41:49;;;;;;;6.70;4.62;;;;;;;22.47;65.38;99553.78;5547992;32;33248;-71
2022/08/16 05:44:54;;;;;;;14.70;4.87;;;;;;;22.76;63.94;99559.56;5548544;32;34582;-71
2022/08/16 05:48:00;;;;;;;11.75;5.00;;;;;;;23.01;63.47;99548.81;5548291;32;33934;-71
2022/08/16 05:51:10;;;;;;;11.35;4.57;;;;;;;23.35;62.86;99549.09;5548394;32;34160;-71
2022/08/16 05:54:33;;;;;;;12.68;5.10;;;;;;;23.76;60.94;99560.72;5547194;32;33898;-71
2022/08/16 05:57:37;;;;;;;12.35;4.60;;;;;;;24.04;59.47;99562.00;5547668;32;34317;-71
2022/08/16 06:00:44;;;;;;;11.38;5.18;;;;;;;24.24;58.41;99556.56;5548504;32;34401;-71
2022/08/16 06:03:50;;;;;;;9.02;4.80;;;;;;;24.64;57.50;99548.22;5547467;32;33079;-71
2022/08/16 06:06:53;;;;;;;11.73;5.05;;;;;;;24.76;57.47;99545.16;5548084;32;33891;-71
2022/08/16 06:10:01;;;;;;;8.43;4.47;;;;;;;25.33;55.93;99543.69;5549970;32;34640;-72
2022/08/16 06:13:05;;;;;;;6.28;4.82;;;;;;;25.56;55.05;99547.59;5550201;32;32763;-72
2022/08/16 06:16:09;;;;;;;6.22;4.35;;;;;;;25.72;54.01;99558.03;5537139;32;32804;-70
2022/08/16 06:19:20;;;;;;;7.62;4.43;;;;;;;25.16;55.42;99557.69;5551108;32;34604;-72
2022/08/16 06:22:25;;;;;;;9.65;5.05;;;;;;;25.65;54.14;99567.63;5549693;32;32844;-71
2022/08/16 06:25:41;;;;;;;8.55;4.35;;;;;;;25.64;53.95;99560.56;5550859;32;35288;-67
2022/08/16 06:28:45;;;;;;;9.20;4.25;;;;;;;25.50;53.46;99561.19;5551274;32;33950;-71
2022/08/16 06:31:48;;;;;;;8.90;4.35;;;;;;;25.88;53.18;99572.28;5551040;32;33922;-68
2022/08/16 06:34:52;;;;;;;11.15;4.57;;;;;;;25.89;51.99;99565.75;5550312;32;32484;-71
2022/08/16 06:38:00;;;;;;;5.32;4.22;;;;;;;26.09;51.60;99560.09;5550964;32;33847;-71
2022/08/16 06:41:06;;;;;;;6.90;3.85;;;;;;;26.35;50.97;99557.88;5550987;32;34014;-71
2022/08/16 06:44:15;;;;;;;8.70;4.53;;;;;;;26.49;51.04;99553.34;5551039;32;33941;-69
2022/08/16 06:47:24;;;;;;;8.25;4.45;;;;;;;26.95;48.64;99556.28;5549938;32;32994;-70
2022/08/16 06:50:49;;;;;;;8.82;4.47;;;;;;;26.96;49.07;99554.38;5550732;32;34007;-71
2022/08/16 06:53:53;;;;;;;9.55;3.80;;;;;;;27.22;48.20;99553.66;5551144;32;33401;-71
2022/08/16 06:56:56;;;;;;;7.30;3.80;;;;;;;27.08;48.53;99557.44;5550937;32;34775;-71
2022/08/16 07:00:00;;;;;;;6.78;3.95;;;;;;;27.15;48.03;99550.53;5551100;32;34481;-71
2022/08/16 07:03:06;;;;;;;7.20;4.07;;;;;;;27.60;47.49;99553.59;5550740;32;34003;-70
2022/08/16 07:06:30;;;;;;;7.62;3.80;;;;;;;27.02;47.42;99558.59;5550999;32;33836;-70
2022/08/16 07:09:33;;;;;;;5.70;3.92;;;;;;;27.18;47.34;99551.81;5551206;32;34331;-71
2022/08/16 07:12:37;;;;;;;13.55;3.85;;;;;;;26.99;47.74;99560.03;5550658;32;34383;-71
2022/08/16 07:16:00;;;;;;;10.10;3.70;;;;;;;27.14;47.07;99558.97;5549978;32;32589;-71
2022/08/16 07:19:03;;;;;;;8.07;3.92;;;;;;;27.14;46.76;99558.97;5550463;32;34075;-68
2022/08/16 07:22:07;;;;;;;6.12;3.55;;;;;;;26.82;47.50;99560.50;5550183;32;34556;-71
2022/08/16 07:25:30;;;;;;;6.00;3.35;;;;;;;26.99;47.78;99570.91;5549529;32;32558;-72
2022/08/16 07:28:34;;;;;;;10.27;4.00;;;;;;;27.17;47.56;99561.09;5549942;32;33278;-68
2022/08/16 07:31:38;;;;;;;10.13;4.05;;;;;;;27.17;47.71;99564.63;5550415;32;34633;-69
2022/08/16 07:34:41;;;;;;;8.38;3.92;;;;;;;26.68;49.27;99562.34;5550413;32;34578;-70
2022/08/16 07:37:52;;;;;;;9.65;4.00;;;;;;;26.98;48.72;99574.72;5550517;32;34591;-70
2022/08/16 07:40:57;;;;;;;11.85;3.72;;;;;;;26.90;48.38;99572.69;5550403;32;33954;-70
2022/08/16 07:44:04;;;;;;;9.63;3.62;;;;;;;27.19;47.19;99578.78;5550309;32;34725;-70
2022/08/16 07:47:18;;;;;;;8.25;3.80;;;;;;;27.11;47.95;99584.88;5537911;32;33181;-70
2022/08/16 07:50:33;;;;;;;8.85;3.55;;;;;;;27.33;47.63;99581.53;5549902;32;34102;-71
2022/08/16 07:53:55;;;;;;;8.95;3.95;;;;;;;27.91;46.03;99589.28;5549402;32;32436;-70
2022/08/16 07:57:13;;;;;;;168.50;12.20;;;;;;;27.61;44.66;99585.19;5550129;32;34742;-71
2022/08/16 08:00:22;;;;;;;;;;;;;;;27.91;43.94;99581.09;5550541;32;34464;-70
2022/08/16 08:03:28;;;;;;;13.35;4.00;;;;;;;27.65;43.91;99576.09;5550575;32;34425;-69
2022/08/16 08:06:44;;;;;;;8.55;3.20;;;;;;;27.73;43.95;99582.00;5550098;32;34049;-70
2022/08/16 08:09:52;;;;;;;7.30;3.62;;;;;;;27.72;44.07;99577.66;5550274;32;34378;-71
2022/08/16 08:12:56;;;;;;;5.75;3.17;;;;;;;27.53;43.85;99572.25;5548781;32;33784;-70
2022/08/16 08:16:02;;;;;;;16.70;3.90;;;;;;;27.75;43.83;99571.59;5549916;32;33962;-69
2022/08/16 08:19:11;;;;;;;12.07;3.65;;;;;;;27.28;44.78;99578.09;5549255;32;34552;-71
2022/08/16 08:22:15;;;;;;;11.55;3.58;;;;;;;27.27;44.16;99582.72;5549705;32;34627;-71
2022/08/16 08:25:24;;;;;;;8.52;3.78;;;;;;;27.12;43.83;99591.13;5549868;32;33907;-71
2022/08/16 08:28:29;;;;;;;11.43;3.28;;;;;;;27.01;44.60;99589.69;5549811;32;34053;-71
2022/08/16 08:31:35;;;;;;;9.32;3.60;;;;;;;27.26;44.32;99572.94;5548347;32;34217;-71
2022/08/16 08:34:38;;;;;;;9.63;2.92;;;;;;;29.31;40.00;99587.44;5549763;32;33931;-71
2022/08/16 08:37:42;;;;;;;19.42;3.20;;;;;;;31.36;35.94;99591.22;5549653;32;34404;-70
2022/08/16 08:41:03;;;;;;;6.80;3.08;;;;;;;33.96;32.60;99587.41;5550034;32;34573;-70
2022/08/16 08:44:06;;;;;;;5.37;2.42;;;;;;;34.35;29.66;99583.19;5549581;32;34610;-73
2022/08/16 08:47:30;;;;;;;5.87;2.05;;;;;;;34.71;28.71;99579.59;5548699;32;34011;-71
2022/08/16 08:50:35;;;;;;;2.87;2.10;;;;;;;36.13;26.26;99589.13;5549416;32;34033;-71
2022/08/16 08:53:41;;;;;;;6.45;1.70;;;;;;;36.39;25.71;99586.62;5549428;32;34572;-67
2022/08/16 08:56:45;;;;;;;4.90;2.10;;;;;;;35.49;26.59;99583.84;5535896;32;32795;-70
2022/08/16 08:59:53;;;;;;;6.82;1.98;;;;;;;35.47;26.37;99586.16;5548761;32;33080;-71
2022/08/16 09:02:58;;;;;;;5.40;2.25;;;;;;;36.30;25.67;99574.16;5549285;32;34141;-70
2022/08/16 09:06:07;;;;;;;7.00;1.90;;;;;;;36.38;24.83;99573.16;5549432;32;33974;-71
2022/08/16 09:09:11;;;;;;;2.95;1.80;;;;;;;37.53;23.81;99572.47;5549164;32;34037;-72
2022/08/16 09:12:21;;;;;;;4.85;1.90;;;;;;;37.59;23.41;99579.34;5549336;32;34482;-71
2022/08/16 09:15:38;;;;;;;3.85;1.90;;;;;;;38.98;21.45;99572.88;5549093;32;34648;-71
2022/08/16 09:18:41;;;;;;;2.60;1.85;;;;;;;40.12;20.44;99574.91;5548732;32;34382;-71
2022/08/16 09:21:45;;;;;;;5.12;1.90;;;;;;;40.25;20.09;99572.63;5548912;32;34620;-70
2022/08/16 09:24:57;;;;;;;5.35;2.08;;;;;;;39.44;20.71;99567.09;5548871;32;35130;-69
2022/08/16 09:28:17;;;;;;;5.10;2.20;;;;;;;38.58;21.66;99565.22;5548958;32;34770;-70
2022/08/16 09:31:42;;;;;;;3.50;2.10;;;;;;;39.19;21.47;99561.25;5537667;32;32757;-71
2022/08/16 09:34:46;;;;;;;2.55;1.92;;;;;;;37.95;22.80;99553.88;5547951;32;33389;-71
2022/08/16 09:37:49;;;;;;;5.37;2.00;;;;;;;38.22;23.20;99549.19;5548739;32;34663;-72
2022/08/16 09:41:19;;;;;;;3.78;2.00;;;;;;;38.72;21.81;99547.97;5548765;32;34120;-71
2022/08/16 09:44:25;;;;;;;11.32;2.12;;;;;;;40.42;20.11;99541.41;5549938;32;35336;-73
2022/08/16 09:47:53;;;;;;;7.12;2.03;;;;;;;39.84;21.36;99550.47;5551536;32;34636;-69
2022/08/16 09:50:59;;;;;;;3.70;2.12;;;;;;;41.48;19.19;99555.81;5537482;32;32623;-71
2022/08/16 09:54:04;;;;;;;3.50;2.08;;;;;;;40.06;20.36;99553.41;5551135;32;33961;-72
2022/08/16 09:57:07;;;;;;;4.60;2.25;;;;;;;40.70;19.25;99558.25;5550348;32;32713;-71
2022/08/16 10:00:16;;;;;;;3.62;2.50;;;;;;;41.26;19.54;99554.13;5550640;32;33997;-72
2022/08/16 10:03:39;;;;;;;4.15;1.80;;;;;;;40.86;19.74;99552.37;5551265;32;33896;-72
2022/08/16 10:07:03;;;;;;;2.42;2.08;;;;;;;40.75;18.92;99552.31;5550323;32;32699;-73
2022/08/16 10:10:21;;;;;;;5.10;1.98;;;;;;;41.77;18.48;99539.13;5551346;32;34734;-72
2022/08/16 10:13:34;;;;;;;4.45;1.95;;;;;;;41.64;18.69;99541.47;5550522;32;32351;-72
2022/08/16 10:16:36;;;;;;;6.15;2.00;;;;;;;42.77;18.03;99543.41;5551387;32;33965;-71
2022/08/16 10:19:40;;;;;;;5.35;2.10;;;;;;;39.81;20.70;99530.97;5537596;32;32601;-72
2022/08/16 10:22:45;;;;;;;2.22;1.87;;;;;;;40.22;20.30;99540.06;5550413;32;32953;-71
2022/08/16 10:25:47;;;;;;;4.37;1.98;;;;;;;37.69;23.10;99526.13;5551106;32;34012;-71
2022/08/16 10:29:11;;;;;;;3.05;2.12;;;;;;;36.43;23.78;99523.16;5550880;32;34110;-71
2022/08/16 10:32:21;;;;;;;9.27;1.90;;;;;;;35.53;25.03;99524.06;5551063;32;34688;-71
2022/08/16 10:35:25;;;;;;;2.22;2.03;;;;;;;35.09;25.78;99524.03;5551163;32;33993;-70
2022/08/16 10:38:37;;;;;;;5.43;2.40;;;;;;;35.53;24.82;99524.88;5550920;32;34835;-70
2022/08/16 10:41:40;;;;;;;3.60;2.20;;;;;;;37.59;23.62;99523.97;5550580;32;34301;-70
2022/08/16 10:44:47;;;;;;;3.33;2.00;;;;;;;40.99;18.62;99528.56;5550521;32;33100;-69
2022/08/16 10:47:57;;;;;;;2.37;1.75;;;;;;;41.09;18.05;99527.06;5550022;32;32821;-72
2022/08/16 10:51:08;;;;;;;3.33;2.20;;;;;;;43.11;16.65;99521.34;5551028;32;35282;-72
2022/08/16 10:54:11;;;;;;;4.53;1.92;;;;;;;43.97;15.31;99522.34;5549607;32;32758;-71
2022/08/16 10:57:31;;;;;;;2.47;1.90;;;;;;;45.35;14.27;99517.97;5550443;32;32694;-72
2022/08/16 11:00:39;;;;;;;6.25;1.98;;;;;;;45.34;14.66;99511.56;5549462;32;32267;-71
2022/08/16 11:03:43;;;;;;;5.78;2.10;;;;;;;42.51;16.81;99497.22;5550885;32;34641;-71
2022/08/16 11:06:47;;;;;;;4.80;2.00;;;;;;;44.52;15.48;99502.62;5550803;32;34082;-72
2022/08/16 11:10:18;;;;;;;3.78;1.70;;;;;;;45.38;14.83;99506.69;5549814;32;33827;-71
2022/08/16 11:13:27;;;;;;;3.40;2.15;;;;;;;42.66;16.27;99509.94;5549950;32;32455;-69
2022/08/16 11:16:50;;;;;;;4.90;2.20;;;;;;;39.86;19.14;99505.63;5550826;32;34662;-73
2022/08/16 11:20:16;;;;;;;3.10;2.17;;;;;;;39.92;19.00;99513.22;5550865;32;35145;-74
2022/08/16 11:23:39;;;;;;;7.97;2.10;;;;;;;36.98;22.78;99516.47;5550503;32;33944;-71
2022/08/16 11:27:00;;;;;;;11.32;2.75;;;;;;;33.57;28.61;99508.19;5550716;32;34057;-70
2022/08/16 11:30:26;;;;;;;9.00;2.55;;;;;;;31.77;32.89;99513.06;5550785;32;34647;-71
2022/08/16 11:33:40;;;;;;;4.72;2.25;;;;;;;31.95;32.96;99513.81;5550657;32;34075;-71
2022/08/16 11:36:59;;;;;;;4.45;2.65;;;;;;;31.73;33.61;99510.19;5550612;32;33992;-69
2022/08/16 11:40:05;;;;;;;4.00;2.22;;;;;;;30.78;34.44;99531.44;5550081;32;33293;-68
2022/08/16 11:43:12;;;;;;;3.60;2.28;;;;;;;30.50;34.84;99528.16;5550359;32;34897;-67
2022/08/16 11:46:19;;;;;;;3.37;2.25;;;;;;;30.24;34.41;99524.56;5537259;32;33146;-72
2022/08/16 11:49:42;;;;;;;2.83;2.00;;;;;;;30.34;32.13;99528.94;5549983;32;32394;-71
2022/08/16 11:52:45;;;;;;;4.22;2.28;;;;;;;30.52;31.34;99533.31;5550518;32;33914;-70
2022/08/16 11:55:49;;;;;;;3.50;1.92;;;;;;;30.46;32.18;99529.13;5550749;32;33909;-70
2022/08/16 11:58:56;;;;;;;3.17;2.50;;;;;;;30.68;32.40;99539.97;5550494;32;34094;-71
2022/08/16 12:01:59;;;;;;;3.95;2.40;;;;;;;30.74;33.14;99543.34;5549567;32;33313;-71
2022/08/16 12:05:23;;;;;;;7.40;2.42;;;;;;;30.96;32.04;99548.66;5549363;32;32415;-71
2022/08/16 12:08:28;;;;;;;4.95;2.42;;;;;;;31.04;32.37;99545.94;5549327;32;33828;-70
2022/08/16 12:11:31;;;;;;;10.77;2.50;;;;;;;31.00;32.51;99538.66;5550715;32;34586;-71
2022/08/16 12:14:35;;;;;;;4.93;2.30;;;;;;;31.13;31.90;99532.22;5550273;32;34248;-71
2022/08/16 12:17:40;;;;;;;6.65;2.70;;;;;;;31.27;32.34;99532.06;5549300;32;33604;-71
2022/08/16 12:20:44;;;;;;;5.25;2.60;;;;;;;31.52;31.94;99522.97;5549720;32;32722;-71
2022/08/16 12:23:47;;;;;;;4.87;2.50;;;;;;;31.74;32.16;99522.78;5550584;32;34257;-70
2022/08/16 12:26:52;;;;;;;2.62;2.30;;;;;;;32.11;31.15;99520.37;5550554;32;33948;-70
2022/08/16 12:29:56;;;;;;;6.68;2.30;;;;;;;32.47;30.00;99528.06;5550095;32;33966;-70
2022/08/16 12:33:00;;;;;;;3.75;2.28;;;;;;;32.56;29.15;99526.06;5548923;32;34051;-71
2022/08/16 12:36:05;;;;;;;3.62;2.10;;;;;;;32.69;29.42;99528.56;5550212;32;34691;-70
2022/08/16 12:39:16;;;;;;;2.92;1.90;;;;;;;33.01;28.08;99526.22;5549340;32;32404;-69
2022/08/16 12:42:24;;;;;;;3.75;2.30;;;;;;;32.91;27.39;99521.16;5550132;32;35065;-69
2022/08/16 12:45:46;;;;;;;6.85;2.08;;;;;;;32.12;28.61;99522.78;5549443;32;34740;-67
2022/08/16 12:48:57;;;;;;;2.87;1.90;;;;;;;31.34;29.90;99527.69;5550035;32;33964;-68
2022/08/16 12:51:59;;;;;;;6.18;2.47;;;;;;;30.93;30.75;99530.16;5549740;32;34682;-67
2022/08/16 12:55:05;;;;;;;2.70;1.90;;;;;;;30.76;31.12;99525.47;5549195;32;34870;-66
2022/08/16 12:58:11;;;;;;;3.17;2.25;;;;;;;30.56;31.65;99521.41;5549639;32;34596;-70
2022/08/16 13:01:35;;;;;;;4.22;2.15;;;;;;;30.31;32.14;99522.16;5549250;32;34001;-69
2022/08/16 13:04:38;;;;;;;3.97;2.33;;;;;;;29.92;34.26;99525.72;5548152;32;33131;-68
2022/08/16 13:07:43;;;;;;;3.37;2.30;;;;;;;29.37;36.70;99517.91;5549175;32;34262;-68
2022/08/16 13:10:55;;;;;;;4.00;2.50;;;;;;;29.03;38.44;99505.91;5548469;32;33333;-68
2022/08/16 13:13:58;;;;;;;4.90;2.40;;;;;;;29.15;37.75;99501.47;5549415;32;33953;-68
2022/08/16 13:17:05;;;;;;;4.82;2.33;;;;;;;29.20;36.70;99495.88;5549066;32;34111;-69
2022/08/16 13:20:15;;;;;;;4.23;2.60;;;;;;;29.45;36.26;99497.19;5550888;32;32964;-68
2022/08/16 13:23:19;;;;;;;3.45;2.10;;;;;;;29.77;35.98;99487.88;5551805;32;34323;-68
2022/08/16 13:26:24;;;;;;;5.03;2.65;;;;;;;30.30;34.93;99482.25;5551547;32;33966;-70
2022/08/16 13:29:28;;;;;;;3.58;2.30;;;;;;;30.94;33.72;99485.97;5537699;32;32611;-68
2022/08/16 13:32:46;;;;;;;3.90;2.42;;;;;;;32.92;30.53;99476.81;5550457;32;33978;-71
2022/08/16 13:35:53;;;;;;;7.47;2.60;;;;;;;37.35;24.63;99476.09;5550476;32;33604;-70
2022/08/16 13:39:00;;;;;;;8.82;2.50;;;;;;;36.29;25.55;99482.19;5550250;32;33586;-71
2022/08/16 13:42:08;;;;;;;6.22;2.50;;;;;;;38.07;23.70;99473.38;5550120;32;33888;-69
2022/08/16 13:45:14;;;;;;;7.85;2.65;;;;;;;36.92;24.74;99477.25;5549839;32;34480;-68
2022/08/16 13:48:17;;;;;;;3.72;2.20;;;;;;;35.99;26.06;99478.31;5550173;32;34248;-69
2022/08/16 13:51:28;;;;;;;4.22;2.62;;;;;;;34.09;29.08;99474.53;5551128;32;34680;-69
2022/08/16 13:54:32;;;;;;;3.87;2.87;;;;;;;33.27;30.77;99471.00;5550922;32;33891;-72
2022/08/16 13:57:35;;;;;;;4.72;2.92;;;;;;;33.15;31.22;99458.03;5549969;32;33945;-71
2022/08/16 14:01:02;;;;;;;5.68;2.62;;;;;;;32.97;31.95;99470.34;5550011;32;34043;-68
2022/08/16 14:04:04;;;;;;;7.32;2.50;;;;;;;32.40;32.06;99464.62;5537479;32;32437;-69
2022/08/16 14:07:13;;;;;;;3.95;2.37;;;;;;;32.14;32.65;99457.41;5550812;32;33908;-70
2022/08/16 14:10:34;;;;;;;3.62;2.53;;;;;;;32.34;32.63;99466.78;5550582;32;34664;-70
2022/08/16 14:13:37;;;;;;;5.28;3.00;;;;;;;32.27;32.52;99459.09;5550848;32;35208;-67
2022/08/16 14:16:40;;;;;;;3.15;2.67;;;;;;;32.26;32.67;99457.47;5550613;32;35257;-70
2022/08/16 14:19:44;;;;;;;13.48;2.85;;;;;;;32.26;32.79;99459.41;5550715;32;34531;-71
2022/08/16 14:22:48;;;;;;;9.65;2.78;;;;;;;32.29;35.33;99461.50;5550852;32;34160;-69
2022/08/16 14:25:56;;;;;;;5.00;2.53;;;;;;;32.75;33.27;99469.56;5550679;32;34111;-70
2022/08/16 14:28:59;;;;;;;3.12;2.08;;;;;;;35.23;28.34;99477.59;5549273;32;33468;-68
2022/08/16 14:32:06;;;;;;;5.60;2.40;;;;;;;35.46;27.71;99463.97;5550540;32;34604;-70
2022/08/16 14:35:14;;;;;;;3.65;2.30;;;;;;;34.88;28.32;99469.09;5537018;32;34611;-70
2022/08/16 14:38:20;;;;;;;5.82;2.58;;;;;;;34.76;29.18;99466.38;5537451;32;33658;-70
2022/08/16 14:41:27;;;;;;;5.65;2.45;;;;;;;34.74;30.52;99471.47;5549106;32;32988;-70
2022/08/16 14:44:31;;;;;;;2.50;2.08;;;;;;;34.12;30.01;99485.66;5550388;32;34140;-70
2022/08/16 14:47:36;;;;;;;2.70;2.10;;;;;;;33.17;30.90;99483.25;5550448;32;34039;-70